createdAt,value
2023-04-09T00:00:18.349Z,8.11
2023-04-09T00:01:18.363Z,8.10
2023-04-09T00:02:18.450Z,8.09
2023-04-09T00:03:18.355Z,8.09
2023-04-09T00:04:19.159Z,8.09
2023-04-09T00:05:18.287Z,8.08
2023-04-09T00:06:18.288Z,8.08
2023-04-09T00:07:18.310Z,8.08
2023-04-09T00:08:18.260Z,8.08
2023-04-09T00:09:18.215Z,8.07
2023-04-09T00:10:18.233Z,8.07
2023-04-09T00:11:18.203Z,8.06
2023-04-09T00:12:18.216Z,8.05
2023-04-09T00:13:25.371Z,8.04
2023-04-09T00:14:19.185Z,8.03
2023-04-09T00:15:29.897Z,8.01
2023-04-09T00:16:19.218Z,8.00
2023-04-09T00:17:18.154Z,8.00
2023-04-09T00:18:18.164Z,7.99
2023-04-09T00:19:18.098Z,7.98
2023-04-09T00:20:18.142Z,7.98
2023-04-09T00:21:18.088Z,7.97
2023-04-09T00:22:18.097Z,7.97
2023-04-09T00:23:18.240Z,7.97
2023-04-09T00:24:18.081Z,7.96
2023-04-09T00:25:18.072Z,7.96
2023-04-09T00:26:18.039Z,7.95
2023-04-09T00:27:18.030Z,7.94
2023-04-09T00:28:18.020Z,7.94
2023-04-09T00:29:18.007Z,7.93
2023-04-09T00:30:17.980Z,7.92
2023-04-09T00:31:20.605Z,7.91
2023-04-09T00:32:17.994Z,7.91
2023-04-09T00:33:17.958Z,7.91
2023-04-09T00:34:18.040Z,7.90
2023-04-09T00:35:17.914Z,7.89
2023-04-09T00:36:17.920Z,7.87
2023-04-09T00:37:17.900Z,7.86
2023-04-09T00:38:17.926Z,7.85
2023-04-09T00:39:18.141Z,7.85
2023-04-09T00:40:17.892Z,7.85
2023-04-09T00:41:17.852Z,7.85
2023-04-09T00:42:17.868Z,7.85
2023-04-09T00:43:17.828Z,7.84
2023-04-09T00:44:18.027Z,7.84
2023-04-09T00:45:17.820Z,7.84
2023-04-09T00:46:17.925Z,7.84
2023-04-09T00:47:18.277Z,7.84
2023-04-09T00:48:17.809Z,7.83
2023-04-09T00:49:17.768Z,7.83
2023-04-09T00:50:17.766Z,7.83
2023-04-09T00:51:17.751Z,7.83
2023-04-09T00:52:18.281Z,7.83
2023-04-09T00:53:17.716Z,7.83
2023-04-09T00:54:17.749Z,7.82
2023-04-09T00:55:17.777Z,7.82
2023-04-09T00:56:17.703Z,7.83
2023-04-09T00:57:17.687Z,7.82
2023-04-09T00:58:17.685Z,7.82
2023-04-09T00:59:17.660Z,7.82
2023-04-09T01:00:19.107Z,7.82
2023-04-09T01:01:17.685Z,7.81
2023-04-09T01:02:17.710Z,7.81
2023-04-09T01:03:18.082Z,7.80
2023-04-09T01:04:17.588Z,7.79
2023-04-09T01:05:17.561Z,7.78
2023-04-09T01:06:17.575Z,7.78
2023-04-09T01:07:17.540Z,7.78
2023-04-09T01:08:17.571Z,7.77
2023-04-09T01:09:17.513Z,7.78
2023-04-09T01:10:17.529Z,7.78
2023-04-09T01:11:17.654Z,7.78
2023-04-09T01:12:18.293Z,7.78
2023-04-09T01:13:17.491Z,7.78
2023-04-09T01:14:17.478Z,7.78
2023-04-09T01:15:18.389Z,7.78
2023-04-09T01:16:17.487Z,7.78
2023-04-09T01:17:17.442Z,7.78
2023-04-09T01:18:18.262Z,7.78
2023-04-09T01:19:18.158Z,7.78
2023-04-09T01:20:18.884Z,7.78
2023-04-09T01:21:18.285Z,7.77
2023-04-09T01:22:17.376Z,7.77
2023-04-09T01:23:18.286Z,7.77
2023-04-09T01:24:18.828Z,7.77
2023-04-09T01:25:17.331Z,7.77
2023-04-09T01:26:18.512Z,7.77
2023-04-09T01:27:18.094Z,7.76
2023-04-09T01:28:18.314Z,7.75
2023-04-09T01:29:17.302Z,7.74
2023-04-09T01:30:18.078Z,7.73
2023-04-09T01:31:18.029Z,7.72
2023-04-09T01:32:17.317Z,7.71
2023-04-09T01:33:17.232Z,7.70
2023-04-09T01:34:18.077Z,7.70
2023-04-09T01:35:17.300Z,7.70
2023-04-09T01:36:17.405Z,7.70
2023-04-09T01:37:17.300Z,7.69
2023-04-09T01:38:17.224Z,7.70
2023-04-09T01:39:17.784Z,7.70
2023-04-09T01:40:17.184Z,7.70
2023-04-09T01:41:17.186Z,7.70
2023-04-09T01:42:17.206Z,7.70
2023-04-09T01:43:17.238Z,7.70
2023-04-09T01:44:17.278Z,7.70
2023-04-09T01:45:17.107Z,7.69
2023-04-09T01:46:17.387Z,7.69
2023-04-09T01:47:17.106Z,7.68
2023-04-09T01:48:17.100Z,7.67
2023-04-09T01:49:17.120Z,7.67
2023-04-09T01:50:17.108Z,7.66
2023-04-09T01:51:17.122Z,7.66
2023-04-09T01:52:17.138Z,7.65
2023-04-09T01:53:17.033Z,7.65
2023-04-09T01:54:17.021Z,7.66
2023-04-09T01:55:17.180Z,7.66
2023-04-09T01:56:16.992Z,7.65
2023-04-09T01:57:17.214Z,7.65
2023-04-09T01:58:16.986Z,7.65
2023-04-09T01:59:17.231Z,7.65
2023-04-09T02:00:17.179Z,7.65
2023-04-09T02:01:17.266Z,7.64
2023-04-09T02:02:18.510Z,7.64
2023-04-09T02:03:17.307Z,7.64
2023-04-09T02:04:18.351Z,7.64
2023-04-09T02:05:16.860Z,7.64
2023-04-09T02:06:17.335Z,7.65
2023-04-09T02:07:17.321Z,7.65
2023-04-09T02:08:18.296Z,7.65
2023-04-09T02:09:16.882Z,7.65
2023-04-09T02:10:16.820Z,7.65
2023-04-09T02:11:17.389Z,7.64
2023-04-09T02:12:16.854Z,7.63
2023-04-09T02:13:16.777Z,7.62
2023-04-09T02:14:16.974Z,7.61
2023-04-09T02:15:17.239Z,7.60
2023-04-09T02:16:18.228Z,7.60
2023-04-09T02:17:16.726Z,7.59
2023-04-09T02:18:16.742Z,7.59
2023-04-09T02:19:18.173Z,7.59
2023-04-09T02:20:16.722Z,7.59
2023-04-09T02:21:16.680Z,7.59
2023-04-09T02:22:16.723Z,7.58
2023-04-09T02:23:17.343Z,7.58
2023-04-09T02:24:16.669Z,7.59
2023-04-09T02:25:17.340Z,7.58
2023-04-09T02:26:16.641Z,7.59
2023-04-09T02:27:16.927Z,7.58
2023-04-09T02:28:16.614Z,7.58
2023-04-09T02:29:16.592Z,7.59
2023-04-09T02:30:16.681Z,7.58
2023-04-09T02:31:16.768Z,7.59
2023-04-09T02:32:16.615Z,7.59
2023-04-09T02:33:16.613Z,7.58
2023-04-09T02:34:16.633Z,7.58
2023-04-09T02:35:16.818Z,7.58
2023-04-09T02:36:16.848Z,7.58
2023-04-09T02:37:16.521Z,7.57
2023-04-09T02:38:16.919Z,7.56
2023-04-09T02:39:16.489Z,7.56
2023-04-09T02:40:17.926Z,7.55
2023-04-09T02:41:16.444Z,7.54
2023-04-09T02:42:16.469Z,7.54
2023-04-09T02:43:16.953Z,7.53
2023-04-09T02:44:16.952Z,7.53
2023-04-09T02:45:16.419Z,7.53
2023-04-09T02:46:17.182Z,7.52
2023-04-09T02:47:16.406Z,7.52
2023-04-09T02:48:16.388Z,7.52
2023-04-09T02:49:16.372Z,7.52
2023-04-09T02:50:16.338Z,7.51
2023-04-09T02:51:16.395Z,7.51
2023-04-09T02:52:16.327Z,7.50
2023-04-09T02:53:16.318Z,7.50
2023-04-09T02:54:16.376Z,7.50
2023-04-09T02:55:16.364Z,7.49
2023-04-09T02:56:16.283Z,7.49
2023-04-09T02:57:16.289Z,7.48
2023-04-09T02:58:16.288Z,7.48
2023-04-09T02:59:17.268Z,7.48
2023-04-09T03:00:16.241Z,7.48
2023-04-09T03:01:16.400Z,7.47
2023-04-09T03:02:17.771Z,7.46
2023-04-09T03:03:17.828Z,7.45
2023-04-09T03:04:16.278Z,7.44
2023-04-09T03:05:16.201Z,7.43
2023-04-09T03:06:16.186Z,7.42
2023-04-09T03:07:16.196Z,7.40
2023-04-09T03:08:16.151Z,7.39
2023-04-09T03:09:16.132Z,7.39
2023-04-09T03:10:16.121Z,7.38
2023-04-09T03:11:17.587Z,7.38
2023-04-09T03:12:16.266Z,7.38
2023-04-09T03:13:16.271Z,7.37
2023-04-09T03:14:16.095Z,7.37
2023-04-09T03:15:16.077Z,7.37
2023-04-09T03:16:16.070Z,7.37
2023-04-09T03:17:16.044Z,7.37
2023-04-09T03:18:16.080Z,7.37
2023-04-09T03:19:17.479Z,7.37
2023-04-09T03:20:16.260Z,7.36
2023-04-09T03:21:16.021Z,7.36
2023-04-09T03:22:16.004Z,7.35
2023-04-09T03:23:16.341Z,7.34
2023-04-09T03:24:16.029Z,7.33
2023-04-09T03:25:15.938Z,7.31
2023-04-09T03:26:16.430Z,7.30
2023-04-09T03:27:16.284Z,7.29
2023-04-09T03:28:16.128Z,7.29
2023-04-09T03:29:15.919Z,7.28
2023-04-09T03:30:15.879Z,7.28
2023-04-09T03:31:16.127Z,7.28
2023-04-09T03:32:17.856Z,7.27
2023-04-09T03:33:15.903Z,7.27
2023-04-09T03:34:16.025Z,7.27
2023-04-09T03:35:17.293Z,7.27
2023-04-09T03:36:15.811Z,7.26
2023-04-09T03:37:15.845Z,7.26
2023-04-09T03:38:15.784Z,7.26
2023-04-09T03:39:16.396Z,7.26
2023-04-09T03:40:15.756Z,7.25
2023-04-09T03:41:15.762Z,7.25
2023-04-09T03:42:16.398Z,7.25
2023-04-09T03:43:15.761Z,7.24
2023-04-09T03:44:16.093Z,7.24
2023-04-09T03:45:15.724Z,7.23
2023-04-09T03:46:15.706Z,7.23
2023-04-09T03:47:16.132Z,7.23
2023-04-09T03:48:15.681Z,7.23
2023-04-09T03:49:15.669Z,7.23
2023-04-09T03:50:15.657Z,7.22
2023-04-09T03:51:15.655Z,7.22
2023-04-09T03:52:15.638Z,7.22
2023-04-09T03:53:15.624Z,7.22
2023-04-09T03:54:15.608Z,7.23
2023-04-09T03:55:16.414Z,7.23
2023-04-09T03:56:15.575Z,7.23
2023-04-09T03:57:15.593Z,7.23
2023-04-09T03:58:16.402Z,7.22
2023-04-09T03:59:17.010Z,7.22
2023-04-09T04:00:16.419Z,7.22
2023-04-09T04:01:15.536Z,7.22
2023-04-09T04:02:15.608Z,7.21
2023-04-09T04:03:15.656Z,7.21
2023-04-09T04:04:15.531Z,7.21
2023-04-09T04:05:15.475Z,7.20
2023-04-09T04:06:15.536Z,7.20
2023-04-09T04:07:15.482Z,7.20
2023-04-09T04:08:15.428Z,7.19
2023-04-09T04:09:15.440Z,7.19
2023-04-09T04:10:15.402Z,7.19
2023-04-09T04:11:15.417Z,7.18
2023-04-09T04:12:15.408Z,7.17
2023-04-09T04:13:15.399Z,7.16
2023-04-09T04:14:15.418Z,7.15
2023-04-09T04:15:15.429Z,7.14
2023-04-09T04:16:15.451Z,7.13
2023-04-09T04:17:15.369Z,7.11
2023-04-09T04:18:15.316Z,7.09
2023-04-09T04:19:15.431Z,7.08
2023-04-09T04:20:15.440Z,7.07
2023-04-09T04:21:15.431Z,7.06
2023-04-09T04:22:15.423Z,7.05
2023-04-09T04:23:15.288Z,7.04
2023-04-09T04:24:15.257Z,7.04
2023-04-09T04:25:15.263Z,7.03
2023-04-09T04:26:15.218Z,7.02
2023-04-09T04:27:15.299Z,7.02
2023-04-09T04:28:15.208Z,7.01
2023-04-09T04:29:15.213Z,7.01
2023-04-09T04:30:15.339Z,7.01
2023-04-09T04:31:15.198Z,7.02
2023-04-09T04:32:15.362Z,7.02
2023-04-09T04:33:15.160Z,7.02
2023-04-09T04:34:15.213Z,7.02
2023-04-09T04:35:15.151Z,7.02
2023-04-09T04:36:15.092Z,7.02
2023-04-09T04:37:15.102Z,7.02
2023-04-09T04:38:15.435Z,7.02
2023-04-09T04:39:15.086Z,7.01
2023-04-09T04:40:15.054Z,7.00
2023-04-09T04:41:15.067Z,6.99
2023-04-09T04:42:15.032Z,6.99
2023-04-09T04:43:15.445Z,6.99
2023-04-09T04:44:15.024Z,6.98
2023-04-09T04:45:15.454Z,6.97
2023-04-09T04:46:15.440Z,6.96
2023-04-09T04:47:15.346Z,6.95
2023-04-09T04:48:15.446Z,6.94
2023-04-09T04:49:14.982Z,6.93
2023-04-09T04:50:14.960Z,6.92
2023-04-09T04:51:16.411Z,6.92
2023-04-09T04:52:16.661Z,6.92
2023-04-09T04:53:14.916Z,6.92
2023-04-09T04:54:15.030Z,6.91
2023-04-09T04:55:14.908Z,6.91
2023-04-09T04:56:15.054Z,6.91
2023-04-09T04:57:14.887Z,6.91
2023-04-09T04:58:14.840Z,6.91
2023-04-09T04:59:15.100Z,6.91
2023-04-09T05:00:14.846Z,6.91
2023-04-09T05:01:15.304Z,6.91
2023-04-09T05:02:15.359Z,6.91
2023-04-09T05:03:14.891Z,6.91
2023-04-09T05:04:14.777Z,6.91
2023-04-09T05:05:14.793Z,6.91
2023-04-09T05:06:14.771Z,6.91
2023-04-09T05:07:14.812Z,6.91
2023-04-09T05:08:14.738Z,6.90
2023-04-09T05:09:14.746Z,6.90
2023-04-09T05:10:15.436Z,6.89
2023-04-09T05:11:14.715Z,6.89
2023-04-09T05:12:15.460Z,6.88
2023-04-09T05:13:14.687Z,6.88
2023-04-09T05:14:15.459Z,6.88
2023-04-09T05:15:15.483Z,6.89
2023-04-09T05:16:14.704Z,6.89
2023-04-09T05:17:15.325Z,6.89
2023-04-09T05:18:15.470Z,6.89
2023-04-09T05:19:14.622Z,6.88
2023-04-09T05:20:14.588Z,6.88
2023-04-09T05:21:14.657Z,6.87
2023-04-09T05:22:14.693Z,6.87
2023-04-09T05:23:15.485Z,6.86
2023-04-09T05:24:14.553Z,6.86
2023-04-09T05:25:15.540Z,6.86
2023-04-09T05:26:15.438Z,6.86
2023-04-09T05:27:14.512Z,6.86
2023-04-09T05:28:14.494Z,6.86
2023-04-09T05:29:14.501Z,6.86
2023-04-09T05:30:14.469Z,6.87
2023-04-09T05:31:14.574Z,6.87
2023-04-09T05:32:14.471Z,6.87
2023-04-09T05:33:14.494Z,6.88
2023-04-09T05:34:14.424Z,6.89
2023-04-09T05:35:14.424Z,6.89
2023-04-09T05:36:14.431Z,6.90
2023-04-09T05:37:14.431Z,6.91
2023-04-09T05:38:14.387Z,6.92
2023-04-09T05:39:14.497Z,6.93
2023-04-09T05:40:14.347Z,6.94
2023-04-09T05:41:14.361Z,6.95
2023-04-09T05:42:14.568Z,6.97
2023-04-09T05:43:14.331Z,6.98
2023-04-09T05:44:14.321Z,6.99
2023-04-09T05:45:14.328Z,7.00
2023-04-09T05:46:14.400Z,7.01
2023-04-09T05:47:14.312Z,7.03
2023-04-09T05:48:14.380Z,7.05
2023-04-09T05:49:14.266Z,7.07
2023-04-09T05:50:14.455Z,7.08
2023-04-09T05:51:14.257Z,7.10
2023-04-09T05:52:14.236Z,7.12
2023-04-09T05:53:14.247Z,7.14
2023-04-09T05:54:14.189Z,7.17
2023-04-09T05:55:14.218Z,7.19
2023-04-09T05:56:14.169Z,7.21
2023-04-09T05:57:14.510Z,7.23
2023-04-09T05:58:14.176Z,7.25
2023-04-09T05:59:14.151Z,7.28
2023-04-09T06:00:14.147Z,7.30
2023-04-09T06:01:14.144Z,7.32
2023-04-09T06:02:14.165Z,7.35
2023-04-09T06:03:14.677Z,7.37
2023-04-09T06:04:14.304Z,7.40
2023-04-09T06:05:14.510Z,7.42
2023-04-09T06:06:14.415Z,7.45
2023-04-09T06:07:15.501Z,7.49
2023-04-09T06:08:14.388Z,7.52
2023-04-09T06:09:14.094Z,7.55
2023-04-09T06:10:14.511Z,7.59
2023-04-09T06:11:14.519Z,7.62
2023-04-09T06:12:14.000Z,7.66
2023-04-09T06:13:14.019Z,7.70
2023-04-09T06:14:14.516Z,7.74
2023-04-09T06:15:14.529Z,7.78
2023-04-09T06:16:14.014Z,7.82
2023-04-09T06:17:13.940Z,7.86
2023-04-09T06:18:13.934Z,7.90
2023-04-09T06:19:14.095Z,7.93
2023-04-09T06:20:13.969Z,7.97
2023-04-09T06:21:15.370Z,8.01
2023-04-09T06:22:14.159Z,8.05
2023-04-09T06:23:14.207Z,8.08
2023-04-09T06:24:13.880Z,8.12
2023-04-09T06:25:13.885Z,8.17
2023-04-09T06:26:13.835Z,8.22
2023-04-09T06:27:14.350Z,8.29
2023-04-09T06:28:13.825Z,8.36
2023-04-09T06:29:13.859Z,8.45
2023-04-09T06:30:15.240Z,8.56
2023-04-09T06:31:13.850Z,8.69
2023-04-09T06:32:14.531Z,8.85
2023-04-09T06:33:13.800Z,9.02
2023-04-09T06:34:14.525Z,9.22
2023-04-09T06:35:15.192Z,9.43
2023-04-09T06:36:13.714Z,9.64
2023-04-09T06:37:15.159Z,9.86
2023-04-09T06:38:14.536Z,10.07
2023-04-09T06:39:13.718Z,10.27
2023-04-09T06:40:14.490Z,10.47
2023-04-09T06:41:13.673Z,10.66
2023-04-09T06:42:14.532Z,10.86
2023-04-09T06:43:14.540Z,11.06
2023-04-09T06:44:14.338Z,11.23
2023-04-09T06:45:13.615Z,11.39
2023-04-09T06:46:14.424Z,11.55
2023-04-09T06:47:13.806Z,11.70
2023-04-09T06:48:13.573Z,11.85
2023-04-09T06:49:13.583Z,12.00
2023-04-09T06:50:13.542Z,12.16
2023-04-09T06:51:13.554Z,12.31
2023-04-09T06:52:13.516Z,12.44
2023-04-09T06:53:15.006Z,12.57
2023-04-09T06:54:13.546Z,12.69
2023-04-09T06:55:13.550Z,12.81
2023-04-09T06:56:13.546Z,12.92
2023-04-09T06:57:13.545Z,13.02
2023-04-09T06:58:13.459Z,13.13
2023-04-09T06:59:13.470Z,13.23
2023-04-09T07:00:13.464Z,13.33
2023-04-09T07:01:13.421Z,13.45
2023-04-09T07:02:13.466Z,13.58
2023-04-09T07:03:13.616Z,13.73
2023-04-09T07:04:15.011Z,13.90
2023-04-09T07:05:13.373Z,14.03
2023-04-09T07:06:13.559Z,14.14
2023-04-09T07:07:13.339Z,14.25
2023-04-09T07:08:13.359Z,14.35
2023-04-09T07:09:13.521Z,14.48
2023-04-09T07:10:13.542Z,14.62
2023-04-09T07:11:13.307Z,14.74
2023-04-09T07:12:13.318Z,14.81
2023-04-09T07:13:13.273Z,14.85
2023-04-09T07:14:13.562Z,14.89
2023-04-09T07:15:13.249Z,14.94
2023-04-09T07:16:13.282Z,14.99
2023-04-09T07:17:13.552Z,15.04
2023-04-09T07:18:13.241Z,15.12
2023-04-09T07:19:13.239Z,15.20
2023-04-09T07:20:13.213Z,15.25
2023-04-09T07:21:13.178Z,15.30
2023-04-09T07:22:13.567Z,15.33
2023-04-09T07:23:13.150Z,15.36
2023-04-09T07:24:13.386Z,15.41
2023-04-09T07:25:13.569Z,15.48
2023-04-09T07:26:13.573Z,15.49
2023-04-09T07:27:13.122Z,15.50
2023-04-09T07:28:13.136Z,15.54
2023-04-09T07:29:13.085Z,15.60
2023-04-09T07:30:14.552Z,15.63
2023-04-09T07:31:13.597Z,15.68
2023-04-09T07:32:13.055Z,15.74
2023-04-09T07:33:13.294Z,15.82
2023-04-09T07:34:13.587Z,15.90
2023-04-09T07:35:13.036Z,15.95
2023-04-09T07:36:13.129Z,15.99
2023-04-09T07:37:13.676Z,16.07
2023-04-09T07:38:13.937Z,16.12
2023-04-09T07:39:13.581Z,16.14
2023-04-09T07:40:12.982Z,16.14
2023-04-09T07:41:12.967Z,16.13
2023-04-09T07:42:12.961Z,16.16
2023-04-09T07:43:13.049Z,16.20
2023-04-09T07:44:12.932Z,16.25
2023-04-09T07:45:12.894Z,16.26
2023-04-09T07:46:12.952Z,16.23
2023-04-09T07:47:13.183Z,16.22
2023-04-09T07:48:13.250Z,16.23
2023-04-09T07:49:13.271Z,16.20
2023-04-09T07:50:13.298Z,16.14
2023-04-09T07:51:12.827Z,16.06
2023-04-09T07:52:12.859Z,16.02
2023-04-09T07:53:12.946Z,16.00
2023-04-09T07:54:14.284Z,15.98
2023-04-09T07:55:13.483Z,15.99
2023-04-09T07:56:12.814Z,16.01
2023-04-09T07:57:13.571Z,16.02
2023-04-09T07:58:13.585Z,16.03
2023-04-09T07:59:13.551Z,16.03
2023-04-09T08:00:13.464Z,16.05
2023-04-09T08:01:12.723Z,16.06
2023-04-09T08:02:15.206Z,16.08
2023-04-09T08:03:12.917Z,16.10
2023-04-09T08:04:13.768Z,16.11
2023-04-09T08:05:12.966Z,16.12
2023-04-09T08:06:12.677Z,16.13
2023-04-09T08:07:13.529Z,16.09
2023-04-09T08:08:13.606Z,16.04
2023-04-09T08:09:12.617Z,15.99
2023-04-09T08:10:12.621Z,15.96
2023-04-09T08:11:12.590Z,15.92
2023-04-09T08:12:12.639Z,15.90
2023-04-09T08:13:12.630Z,15.88
2023-04-09T08:14:12.582Z,15.84
2023-04-09T08:15:12.616Z,15.82
2023-04-09T08:16:12.632Z,15.81
2023-04-09T08:17:12.536Z,15.77
2023-04-09T08:18:12.530Z,15.69
2023-04-09T08:19:12.510Z,15.60
2023-04-09T08:20:12.551Z,15.55
2023-04-09T08:21:12.485Z,15.52
2023-04-09T08:22:12.501Z,15.50
2023-04-09T08:23:12.457Z,15.47
2023-04-09T08:24:12.478Z,15.43
2023-04-09T08:25:12.441Z,15.38
2023-04-09T08:26:12.596Z,15.32
2023-04-09T08:27:12.422Z,15.24
2023-04-09T08:28:13.877Z,15.17
2023-04-09T08:29:12.615Z,15.13
2023-04-09T08:30:12.399Z,15.11
2023-04-09T08:31:12.367Z,15.13
2023-04-09T08:32:12.453Z,15.12
2023-04-09T08:33:12.332Z,15.08
2023-04-09T08:34:12.620Z,15.04
2023-04-09T08:35:12.324Z,15.02
2023-04-09T08:36:12.336Z,15.00
2023-04-09T08:37:12.657Z,14.98
2023-04-09T08:38:12.294Z,14.97
2023-04-09T08:39:12.274Z,14.96
2023-04-09T08:40:12.283Z,14.93
2023-04-09T08:41:13.515Z,14.88
2023-04-09T08:42:12.662Z,14.83
2023-04-09T08:43:12.220Z,14.75
2023-04-09T08:44:12.237Z,14.66
2023-04-09T08:45:12.627Z,14.60
2023-04-09T08:46:12.252Z,14.55
2023-04-09T08:47:13.673Z,14.51
2023-04-09T08:48:12.264Z,14.45
2023-04-09T08:49:12.137Z,14.40
2023-04-09T08:50:13.607Z,14.36
2023-04-09T08:51:12.138Z,14.34
2023-04-09T08:52:12.164Z,14.33
2023-04-09T08:53:12.627Z,14.31
2023-04-09T08:54:12.109Z,14.28
2023-04-09T08:55:12.142Z,14.25
2023-04-09T08:56:12.125Z,14.24
2023-04-09T08:57:12.075Z,14.24
2023-04-09T08:58:12.611Z,14.24
2023-04-09T08:59:12.045Z,14.20
2023-04-09T09:00:12.040Z,14.17
2023-04-09T09:01:13.556Z,14.14
2023-04-09T09:02:12.678Z,14.11
2023-04-09T09:03:12.058Z,14.07
2023-04-09T09:04:12.024Z,14.05
2023-04-09T09:05:11.956Z,14.07
2023-04-09T09:06:12.130Z,14.10
2023-04-09T09:07:11.961Z,14.13
2023-04-09T09:08:11.963Z,14.17
2023-04-09T09:09:12.242Z,14.22
2023-04-09T09:10:11.918Z,14.27
2023-04-09T09:11:12.305Z,14.32
2023-04-09T09:12:11.882Z,14.36
2023-04-09T09:13:11.893Z,14.40
2023-04-09T09:14:12.291Z,14.42
2023-04-09T09:15:11.840Z,14.42
2023-04-09T09:16:12.517Z,14.39
2023-04-09T09:17:12.493Z,14.36
2023-04-09T09:18:11.838Z,14.31
2023-04-09T09:19:12.543Z,14.28
2023-04-09T09:20:11.790Z,14.26
2023-04-09T09:21:12.664Z,14.23
2023-04-09T09:22:13.240Z,14.19
2023-04-09T09:23:12.656Z,14.13
2023-04-09T09:24:13.196Z,14.08
2023-04-09T09:25:12.469Z,14.04
2023-04-09T09:26:12.664Z,14.01
2023-04-09T09:27:12.650Z,13.98
2023-04-09T09:28:12.701Z,13.96
2023-04-09T09:29:11.702Z,13.96
2023-04-09T09:30:11.717Z,13.97
2023-04-09T09:31:11.861Z,13.95
2023-04-09T09:32:13.163Z,13.93
2023-04-09T09:33:11.636Z,13.92
2023-04-09T09:34:11.679Z,13.94
2023-04-09T09:35:13.094Z,13.97
2023-04-09T09:36:11.722Z,13.98
2023-04-09T09:37:11.662Z,13.95
2023-04-09T09:38:11.617Z,13.91
2023-04-09T09:39:11.597Z,13.87
2023-04-09T09:40:11.664Z,13.83
2023-04-09T09:41:11.596Z,13.79
2023-04-09T09:42:11.585Z,13.75
2023-04-09T09:43:12.851Z,13.70
2023-04-09T09:44:11.573Z,13.68
2023-04-09T09:45:11.531Z,13.66
2023-04-09T09:46:13.009Z,13.63
2023-04-09T09:47:11.513Z,13.60
2023-04-09T09:48:11.555Z,13.57
2023-04-09T09:49:11.508Z,13.55
2023-04-09T09:50:11.481Z,13.54
2023-04-09T09:51:11.677Z,13.53
2023-04-09T09:52:11.444Z,13.55
2023-04-09T09:53:11.418Z,13.57
2023-04-09T09:54:11.441Z,13.60
2023-04-09T09:55:11.385Z,13.63
2023-04-09T09:56:12.837Z,13.69
2023-04-09T09:57:11.700Z,13.74
2023-04-09T09:58:11.364Z,13.78
2023-04-09T09:59:11.692Z,13.80
2023-04-09T10:00:11.357Z,13.83
2023-04-09T10:01:11.361Z,13.87
2023-04-09T10:02:13.002Z,13.90
2023-04-09T10:03:11.304Z,13.94
2023-04-09T10:04:12.794Z,13.95
2023-04-09T10:05:11.688Z,13.95
2023-04-09T10:06:11.267Z,13.95
2023-04-09T10:07:11.240Z,13.93
2023-04-09T10:08:11.246Z,13.90
2023-04-09T10:09:11.230Z,13.87
2023-04-09T10:10:11.701Z,13.83
2023-04-09T10:11:11.216Z,13.78
2023-04-09T10:12:11.228Z,13.73
2023-04-09T10:13:11.683Z,13.68
2023-04-09T10:14:11.198Z,13.65
2023-04-09T10:15:11.170Z,13.65
2023-04-09T10:16:11.190Z,13.65
2023-04-09T10:17:11.118Z,13.67
2023-04-09T10:18:11.702Z,13.69
2023-04-09T10:19:11.153Z,13.74
2023-04-09T10:20:12.547Z,13.79
2023-04-09T10:21:11.092Z,13.83
2023-04-09T10:22:11.089Z,13.85
2023-04-09T10:23:11.062Z,13.84
2023-04-09T10:24:11.088Z,13.83
2023-04-09T10:25:11.057Z,13.83
2023-04-09T10:26:12.487Z,13.81
2023-04-09T10:27:11.495Z,13.80
2023-04-09T10:28:11.031Z,13.80
2023-04-09T10:29:11.706Z,13.79
2023-04-09T10:30:11.017Z,13.79
2023-04-09T10:31:11.062Z,13.80
2023-04-09T10:32:10.960Z,13.81
2023-04-09T10:33:10.962Z,13.82
2023-04-09T10:34:11.085Z,13.84
2023-04-09T10:35:11.050Z,13.84
2023-04-09T10:36:11.083Z,13.84
2023-04-09T10:37:11.186Z,13.83
2023-04-09T10:38:10.905Z,13.80
2023-04-09T10:39:11.258Z,13.76
2023-04-09T10:40:10.896Z,13.73
2023-04-09T10:41:10.856Z,13.70
2023-04-09T10:42:11.292Z,13.68
2023-04-09T10:43:10.838Z,13.65
2023-04-09T10:44:11.401Z,13.63
2023-04-09T10:45:11.458Z,13.60
2023-04-09T10:46:11.489Z,13.58
2023-04-09T10:47:11.489Z,13.57
2023-04-09T10:48:10.777Z,13.55
2023-04-09T10:49:11.555Z,13.53
2023-04-09T10:50:12.244Z,13.51
2023-04-09T10:51:11.621Z,13.50
2023-04-09T10:52:12.530Z,13.47
2023-04-09T10:53:10.732Z,13.42
2023-04-09T10:54:10.697Z,13.38
2023-04-09T10:55:10.726Z,13.34
2023-04-09T10:56:10.679Z,13.32
2023-04-09T10:57:10.677Z,13.31
2023-04-09T10:58:12.707Z,13.29
2023-04-09T10:59:10.653Z,13.25
2023-04-09T11:00:12.089Z,13.22
2023-04-09T11:01:10.629Z,13.20
2023-04-09T11:02:10.682Z,13.18
2023-04-09T11:03:10.693Z,13.17
2023-04-09T11:04:10.900Z,13.15
2023-04-09T11:05:10.594Z,13.14
2023-04-09T11:06:10.670Z,13.15
2023-04-09T11:07:10.546Z,13.18
2023-04-09T11:08:10.530Z,13.22
2023-04-09T11:09:10.521Z,13.26
2023-04-09T11:10:10.518Z,13.29
2023-04-09T11:11:10.526Z,13.34
2023-04-09T11:12:10.480Z,13.39
2023-04-09T11:13:10.491Z,13.45
2023-04-09T11:14:10.744Z,13.49
2023-04-09T11:15:10.473Z,13.53
2023-04-09T11:16:10.483Z,13.56
2023-04-09T11:17:10.460Z,13.57
2023-04-09T11:18:10.419Z,13.58
2023-04-09T11:19:10.413Z,13.57
2023-04-09T11:20:10.380Z,13.56
2023-04-09T11:21:10.439Z,13.54
2023-04-09T11:22:10.394Z,13.51
2023-04-09T11:23:10.386Z,13.48
2023-04-09T11:24:10.336Z,13.44
2023-04-09T11:25:10.360Z,13.41
2023-04-09T11:26:10.348Z,13.38
2023-04-09T11:27:10.336Z,13.36
2023-04-09T11:28:10.292Z,13.33
2023-04-09T11:29:10.300Z,13.31
2023-04-09T11:30:10.266Z,13.31
2023-04-09T11:31:10.323Z,13.33
2023-04-09T11:32:10.268Z,13.36
2023-04-09T11:33:10.365Z,13.40
2023-04-09T11:34:10.232Z,13.43
2023-04-09T11:35:10.219Z,13.46
2023-04-09T11:36:10.242Z,13.46
2023-04-09T11:37:10.221Z,13.45
2023-04-09T11:38:10.180Z,13.44
2023-04-09T11:39:10.178Z,13.44
2023-04-09T11:40:10.145Z,13.43
2023-04-09T11:41:10.160Z,13.41
2023-04-09T11:42:10.145Z,13.39
2023-04-09T11:43:10.132Z,13.38
2023-04-09T11:44:10.098Z,13.38
2023-04-09T11:45:10.129Z,13.38
2023-04-09T11:46:10.079Z,13.39
2023-04-09T11:47:10.295Z,13.40
2023-04-09T11:48:10.069Z,13.42
2023-04-09T11:49:10.763Z,13.42
2023-04-09T11:50:10.093Z,13.42
2023-04-09T11:51:10.067Z,13.43
2023-04-09T11:52:10.008Z,13.43
2023-04-09T11:53:10.030Z,13.44
2023-04-09T11:54:10.768Z,13.45
2023-04-09T11:55:10.003Z,13.48
2023-04-09T11:56:10.762Z,13.49
2023-04-09T11:57:10.686Z,13.51
2023-04-09T11:58:09.949Z,13.54
2023-04-09T11:59:10.778Z,13.56
2023-04-09T12:00:09.981Z,13.57
2023-04-09T12:01:11.393Z,13.59
2023-04-09T12:02:10.817Z,13.61
2023-04-09T12:03:10.169Z,13.63
2023-04-09T12:04:10.084Z,13.65
2023-04-09T12:05:09.970Z,13.65
2023-04-09T12:06:09.953Z,13.66
2023-04-09T12:07:09.994Z,13.65
2023-04-09T12:08:09.831Z,13.65
2023-04-09T12:09:09.826Z,13.66
2023-04-09T12:10:09.798Z,13.66
2023-04-09T12:11:09.805Z,13.66
2023-04-09T12:12:09.796Z,13.66
2023-04-09T12:13:09.810Z,13.65
2023-04-09T12:14:09.745Z,13.63
2023-04-09T12:15:09.754Z,13.62
2023-04-09T12:16:09.752Z,13.62
2023-04-09T12:17:09.819Z,13.63
2023-04-09T12:18:09.720Z,13.65
2023-04-09T12:19:09.723Z,13.67
2023-04-09T12:20:09.823Z,13.68
2023-04-09T12:21:09.703Z,13.70
2023-04-09T12:22:09.659Z,13.71
2023-04-09T12:23:09.670Z,13.71
2023-04-09T12:24:09.663Z,13.70
2023-04-09T12:25:09.863Z,13.70
2023-04-09T12:26:09.617Z,13.70
2023-04-09T12:27:09.619Z,13.69
2023-04-09T12:28:11.097Z,13.68
2023-04-09T12:29:09.626Z,13.68
2023-04-09T12:30:09.581Z,13.69
2023-04-09T12:31:09.563Z,13.70
2023-04-09T12:32:09.578Z,13.73
2023-04-09T12:33:11.110Z,13.74
2023-04-09T12:34:09.541Z,13.75
2023-04-09T12:35:09.529Z,13.76
2023-04-09T12:36:09.807Z,13.77
2023-04-09T12:37:09.529Z,13.78
2023-04-09T12:38:09.468Z,13.79
2023-04-09T12:39:09.508Z,13.81
2023-04-09T12:40:09.458Z,13.84
2023-04-09T12:41:09.457Z,13.87
2023-04-09T12:42:09.810Z,13.91
2023-04-09T12:43:09.476Z,13.93
2023-04-09T12:44:10.121Z,13.94
2023-04-09T12:45:09.479Z,13.92
2023-04-09T12:46:09.904Z,13.90
2023-04-09T12:47:09.817Z,13.88
2023-04-09T12:48:09.383Z,13.86
2023-04-09T12:49:09.375Z,13.85
2023-04-09T12:50:09.354Z,13.85
2023-04-09T12:51:09.336Z,13.85
2023-04-09T12:52:10.795Z,13.86
2023-04-09T12:53:09.327Z,13.85
2023-04-09T12:54:09.290Z,13.84
2023-04-09T12:55:09.334Z,13.82
2023-04-09T12:56:09.286Z,13.80
2023-04-09T12:57:09.557Z,13.78
2023-04-09T12:58:09.516Z,13.77
2023-04-09T12:59:09.254Z,13.75
2023-04-09T13:00:09.244Z,13.73
2023-04-09T13:01:09.266Z,13.71
2023-04-09T13:02:09.320Z,13.69
2023-04-09T13:03:09.329Z,13.67
2023-04-09T13:04:09.851Z,13.66
2023-04-09T13:05:10.681Z,13.66